sensor_id;sensor_type;location;lat;lon;timestamp;temperature;humidity
56046;DHT22;41913;51.030;3.706;2022-10-26T00:03:06;14.30;99.90
56046;DHT22;41913;51.030;3.706;2022-10-26T00:08:34;14.30;99.90
56046;DHT22;41913;51.030;3.706;2022-10-26T00:11:03;14.40;99.90
56046;DHT22;41913;51.030;3.706;2022-10-26T00:13:54;14.40;99.90
56046;DHT22;41913;51.030;3.706;2022-10-26T00:16:24;14.40;99.90
56046;DHT22;41913;51.030;3.706;2022-10-26T00:18:56;14.30;99.90
56046;DHT22;41913;51.030;3.706;2022-10-26T00:21:22;14.30;99.90
56046;DHT22;41913;51.030;3.706;2022-10-26T00:23:58;14.30;99.90
56046;DHT22;41913;51.030;3.706;2022-10-26T00:26:30;14.30;99.90
56046;DHT22;41913;51.030;3.706;2022-10-26T00:28:57;14.30;99.90
56046;DHT22;41913;51.030;3.706;2022-10-26T00:31:24;14.30;99.90
56046;DHT22;41913;51.030;3.706;2022-10-26T00:33:54;14.30;99.90
56046;DHT22;41913;51.030;3.706;2022-10-26T00:36:26;14.30;99.90
56046;DHT22;41913;51.030;3.706;2022-10-26T00:39:03;14.40;99.90
56046;DHT22;41913;51.030;3.706;2022-10-26T00:47:08;14.30;99.90
56046;DHT22;41913;51.030;3.706;2022-10-26T00:49:37;14.30;99.90
56046;DHT22;41913;51.030;3.706;2022-10-26T00:52:03;14.40;99.90
56046;DHT22;41913;51.030;3.706;2022-10-26T00:54:35;14.20;99.90
56046;DHT22;41913;51.030;3.706;2022-10-26T00:57:14;14.30;99.90
56046;DHT22;41913;51.030;3.706;2022-10-26T00:59:52;14.30;99.90
56046;DHT22;41913;51.030;3.706;2022-10-26T01:02:20;14.30;99.90
56046;DHT22;41913;51.030;3.706;2022-10-26T01:04:47;14.20;99.90
56046;DHT22;41913;51.030;3.706;2022-10-26T01:07:13;14.20;99.90
56046;DHT22;41913;51.030;3.706;2022-10-26T01:09:44;14.20;99.90
56046;DHT22;41913;51.030;3.706;2022-10-26T01:15:06;14.10;99.90
56046;DHT22;41913;51.030;3.706;2022-10-26T01:34:33;14.30;99.90
56046;DHT22;41913;51.030;3.706;2022-10-26T01:37:22;14.20;99.90
56046;DHT22;41913;51.030;3.706;2022-10-26T01:45:17;14.30;99.90
56046;DHT22;41913;51.030;3.706;2022-10-26T01:47:52;14.40;99.90
56046;DHT22;41913;51.030;3.706;2022-10-26T01:50:22;14.40;99.90
56046;DHT22;41913;51.030;3.706;2022-10-26T01:52:48;14.40;99.90
56046;DHT22;41913;51.030;3.706;2022-10-26T02:00:58;14.40;99.90
56046;DHT22;41913;51.030;3.706;2022-10-26T02:12:04;14.60;99.90
56046;DHT22;41913;51.030;3.706;2022-10-26T02:14:50;14.60;99.90
56046;DHT22;41913;51.030;3.706;2022-10-26T02:17:27;14.60;99.90
56046;DHT22;41913;51.030;3.706;2022-10-26T02:19:58;14.50;99.90
56046;DHT22;41913;51.030;3.706;2022-10-26T02:22:35;14.50;99.90
56046;DHT22;41913;51.030;3.706;2022-10-26T02:25:07;14.40;99.90
56046;DHT22;41913;51.030;3.706;2022-10-26T02:27:34;14.30;99.90
56046;DHT22;41913;51.030;3.706;2022-10-26T02:30:02;14.30;99.90
56046;DHT22;41913;51.030;3.706;2022-10-26T02:32:32;14.30;99.90
56046;DHT22;41913;51.030;3.706;2022-10-26T02:35:00;14.30;99.90
56046;DHT22;41913;51.030;3.706;2022-10-26T02:37:27;14.30;99.90
56046;DHT22;41913;51.030;3.706;2022-10-26T02:40:05;14.30;99.90
56046;DHT22;41913;51.030;3.706;2022-10-26T02:42:33;14.30;99.90
56046;DHT22;41913;51.030;3.706;2022-10-26T02:45:08;14.40;99.90
56046;DHT22;41913;51.030;3.706;2022-10-26T02:47:36;14.50;99.90
56046;DHT22;41913;51.030;3.706;2022-10-26T02:50:03;14.50;99.90
56046;DHT22;41913;51.030;3.706;2022-10-26T02:52:36;14.50;99.90
56046;DHT22;41913;51.030;3.706;2022-10-26T02:55:21;14.50;99.90
56046;DHT22;41913;51.030;3.706;2022-10-26T02:57:53;14.50;99.90
56046;DHT22;41913;51.030;3.706;2022-10-26T03:00:23;14.60;99.90
56046;DHT22;41913;51.030;3.706;2022-10-26T03:02:55;14.70;99.90
56046;DHT22;41913;51.030;3.706;2022-10-26T03:05:28;14.70;99.90
56046;DHT22;41913;51.030;3.706;2022-10-26T03:07:56;14.90;99.90
56046;DHT22;41913;51.030;3.706;2022-10-26T03:10:23;14.70;99.90
56046;DHT22;41913;51.030;3.706;2022-10-26T03:12:50;14.80;99.90
56046;DHT22;41913;51.030;3.706;2022-10-26T03:15:19;14.80;99.90
56046;DHT22;41913;51.030;3.706;2022-10-26T03:17:48;14.80;99.90
56046;DHT22;41913;51.030;3.706;2022-10-26T03:20:15;14.90;99.90
56046;DHT22;41913;51.030;3.706;2022-10-26T03:22:41;14.80;99.90
56046;DHT22;41913;51.030;3.706;2022-10-26T03:25:07;14.80;99.90
56046;DHT22;41913;51.030;3.706;2022-10-26T03:27:33;14.80;99.90
56046;DHT22;41913;51.030;3.706;2022-10-26T03:30:03;14.80;99.90
56046;DHT22;41913;51.030;3.706;2022-10-26T03:32:30;14.70;99.90
56046;DHT22;41913;51.030;3.706;2022-10-26T03:34:59;14.70;99.90
56046;DHT22;41913;51.030;3.706;2022-10-26T03:37:26;14.70;99.90
56046;DHT22;41913;51.030;3.706;2022-10-26T03:39:53;14.70;99.90
56046;DHT22;41913;51.030;3.706;2022-10-26T03:42:20;14.70;99.90
56046;DHT22;41913;51.030;3.706;2022-10-26T03:44:48;14.70;99.90
56046;DHT22;41913;51.030;3.706;2022-10-26T03:47:15;14.60;99.90
56046;DHT22;41913;51.030;3.706;2022-10-26T03:49:41;14.60;99.90
56046;DHT22;41913;51.030;3.706;2022-10-26T03:52:07;14.60;99.90
56046;DHT22;41913;51.030;3.706;2022-10-26T03:54:36;14.70;99.90
56046;DHT22;41913;51.030;3.706;2022-10-26T03:57:03;14.70;99.90
56046;DHT22;41913;51.030;3.706;2022-10-26T04:01:58;14.70;99.90
56046;DHT22;41913;51.030;3.706;2022-10-26T04:04:25;14.90;99.90
56046;DHT22;41913;51.030;3.706;2022-10-26T04:07:01;14.80;99.90
56046;DHT22;41913;51.030;3.706;2022-10-26T04:09:27;14.90;99.90
56046;DHT22;41913;51.030;3.706;2022-10-26T04:11:54;14.90;99.90
56046;DHT22;41913;51.030;3.706;2022-10-26T04:14:21;14.90;99.90
56046;DHT22;41913;51.030;3.706;2022-10-26T04:19:16;14.90;99.90
56046;DHT22;41913;51.030;3.706;2022-10-26T04:24:15;15.00;99.90
56046;DHT22;41913;51.030;3.706;2022-10-26T04:26:40;15.00;99.90
56046;DHT22;41913;51.030;3.706;2022-10-26T04:29:10;15.00;99.90
56046;DHT22;41913;51.030;3.706;2022-10-26T04:31:38;15.10;99.90
56046;DHT22;41913;51.030;3.706;2022-10-26T04:34:08;15.20;99.90
56046;DHT22;41913;51.030;3.706;2022-10-26T04:36:34;15.20;99.90
56046;DHT22;41913;51.030;3.706;2022-10-26T04:38:59;15.30;99.90
56046;DHT22;41913;51.030;3.706;2022-10-26T04:41:27;15.30;99.90
56046;DHT22;41913;51.030;3.706;2022-10-26T04:43:55;15.40;99.90
56046;DHT22;41913;51.030;3.706;2022-10-26T04:46:21;15.30;99.90
56046;DHT22;41913;51.030;3.706;2022-10-26T04:48:49;15.20;99.90
56046;DHT22;41913;51.030;3.706;2022-10-26T04:51:14;15.30;99.90
56046;DHT22;41913;51.030;3.706;2022-10-26T04:53:45;15.30;99.90
56046;DHT22;41913;51.030;3.706;2022-10-26T04:56:14;15.30;99.90
56046;DHT22;41913;51.030;3.706;2022-10-26T04:58:41;15.20;99.90
56046;DHT22;41913;51.030;3.706;2022-10-26T05:01:09;15.20;99.90
56046;DHT22;41913;51.030;3.706;2022-10-26T05:03:35;15.20;99.90
56046;DHT22;41913;51.030;3.706;2022-10-26T05:06:02;15.30;99.90
56046;DHT22;41913;51.030;3.706;2022-10-26T05:08:28;15.30;99.90
56046;DHT22;41913;51.030;3.706;2022-10-26T05:10:54;15.20;99.90
56046;DHT22;41913;51.030;3.706;2022-10-26T05:13:22;15.30;99.90
56046;DHT22;41913;51.030;3.706;2022-10-26T05:15:51;15.30;99.90
56046;DHT22;41913;51.030;3.706;2022-10-26T05:18:18;15.30;99.90
56046;DHT22;41913;51.030;3.706;2022-10-26T05:20:46;15.20;99.90
56046;DHT22;41913;51.030;3.706;2022-10-26T05:23:15;15.30;99.90
56046;DHT22;41913;51.030;3.706;2022-10-26T05:25:45;15.30;99.90
56046;DHT22;41913;51.030;3.706;2022-10-26T05:28:12;15.40;99.90
56046;DHT22;41913;51.030;3.706;2022-10-26T05:30:46;15.40;99.90
56046;DHT22;41913;51.030;3.706;2022-10-26T05:33:13;15.50;99.90
56046;DHT22;41913;51.030;3.706;2022-10-26T05:35:42;15.40;99.90
56046;DHT22;41913;51.030;3.706;2022-10-26T05:38:20;15.40;99.90
56046;DHT22;41913;51.030;3.706;2022-10-26T05:40:53;15.50;99.90
56046;DHT22;41913;51.030;3.706;2022-10-26T05:43:19;15.40;99.90
56046;DHT22;41913;51.030;3.706;2022-10-26T05:45:46;15.30;99.90
56046;DHT22;41913;51.030;3.706;2022-10-26T05:48:21;15.30;99.90
56046;DHT22;41913;51.030;3.706;2022-10-26T05:50:48;15.30;99.90
56046;DHT22;41913;51.030;3.706;2022-10-26T05:53:15;15.30;99.90
56046;DHT22;41913;51.030;3.706;2022-10-26T05:55:41;15.30;99.90
56046;DHT22;41913;51.030;3.706;2022-10-26T05:58:13;15.20;99.90
56046;DHT22;41913;51.030;3.706;2022-10-26T06:03:37;15.20;99.90
56046;DHT22;41913;51.030;3.706;2022-10-26T06:06:16;15.30;99.90
56046;DHT22;41913;51.030;3.706;2022-10-26T06:08:43;15.30;99.90
56046;DHT22;41913;51.030;3.706;2022-10-26T06:11:11;15.30;99.90
56046;DHT22;41913;51.030;3.706;2022-10-26T06:13:39;15.20;99.90
56046;DHT22;41913;51.030;3.706;2022-10-26T06:19:26;15.10;99.90
56046;DHT22;41913;51.030;3.706;2022-10-26T06:28:01;15.10;99.90
56046;DHT22;41913;51.030;3.706;2022-10-26T06:33:03;15.10;99.90
56046;DHT22;41913;51.030;3.706;2022-10-26T06:38:19;15.20;99.90
56046;DHT22;41913;51.030;3.706;2022-10-26T06:40:51;15.10;99.90
56046;DHT22;41913;51.030;3.706;2022-10-26T06:57:33;15.40;99.90
56046;DHT22;41913;51.030;3.706;2022-10-26T07:00:21;15.40;99.90
56046;DHT22;41913;51.030;3.706;2022-10-26T07:06:13;15.50;99.90
56046;DHT22;41913;51.030;3.706;2022-10-26T07:14:47;15.50;99.90
56046;DHT22;41913;51.030;3.706;2022-10-26T07:20:09;15.50;99.90
56046;DHT22;41913;51.030;3.706;2022-10-26T07:22:56;15.60;99.90
56046;DHT22;41913;51.030;3.706;2022-10-26T07:25:58;15.70;99.90
56046;DHT22;41913;51.030;3.706;2022-10-26T07:28:30;15.70;99.90
56046;DHT22;41913;51.030;3.706;2022-10-26T07:31:04;15.90;99.90
56046;DHT22;41913;51.030;3.706;2022-10-26T07:33:34;15.80;99.90
56046;DHT22;41913;51.030;3.706;2022-10-26T07:36:27;15.90;99.90
56046;DHT22;41913;51.030;3.706;2022-10-26T07:38:54;15.90;99.90
56046;DHT22;41913;51.030;3.706;2022-10-26T07:41:41;16.10;99.90
56046;DHT22;41913;51.030;3.706;2022-10-26T07:44:19;16.20;99.90
56046;DHT22;41913;51.030;3.706;2022-10-26T07:46:48;16.30;99.90
56046;DHT22;41913;51.030;3.706;2022-10-26T07:49:22;16.20;99.90
56046;DHT22;41913;51.030;3.706;2022-10-26T07:51:50;16.70;99.90
56046;DHT22;41913;51.030;3.706;2022-10-26T07:54:19;17.70;99.90
56046;DHT22;41913;51.030;3.706;2022-10-26T07:56:48;19.50;99.90
56046;DHT22;41913;51.030;3.706;2022-10-26T07:59:14;21.20;99.90
56046;DHT22;41913;51.030;3.706;2022-10-26T08:01:43;22.60;99.90
56046;DHT22;41913;51.030;3.706;2022-10-26T08:04:09;23.30;99.90
56046;DHT22;41913;51.030;3.706;2022-10-26T08:06:38;23.90;99.90
56046;DHT22;41913;51.030;3.706;2022-10-26T08:09:06;23.10;99.90
56046;DHT22;41913;51.030;3.706;2022-10-26T08:11:32;22.10;99.90
56046;DHT22;41913;51.030;3.706;2022-10-26T08:16:29;22.00;99.90
56046;DHT22;41913;51.030;3.706;2022-10-26T08:18:55;22.60;99.90
56046;DHT22;41913;51.030;3.706;2022-10-26T08:21:22;22.20;99.90
56046;DHT22;41913;51.030;3.706;2022-10-26T08:23:51;21.60;99.90
56046;DHT22;41913;51.030;3.706;2022-10-26T08:28:47;22.20;99.90
56046;DHT22;41913;51.030;3.706;2022-10-26T08:33:45;21.10;99.90
56046;DHT22;41913;51.030;3.706;2022-10-26T08:36:19;21.60;99.90
56046;DHT22;41913;51.030;3.706;2022-10-26T08:38:49;22.20;99.90
56046;DHT22;41913;51.030;3.706;2022-10-26T08:41:15;22.60;99.90
56046;DHT22;41913;51.030;3.706;2022-10-26T08:46:18;23.40;99.90
56046;DHT22;41913;51.030;3.706;2022-10-26T08:48:55;23.90;99.90
56046;DHT22;41913;51.030;3.706;2022-10-26T08:51:26;24.50;99.90
56046;DHT22;41913;51.030;3.706;2022-10-26T08:59:08;24.70;99.90
56046;DHT22;41913;51.030;3.706;2022-10-26T09:01:37;25.10;99.90
56046;DHT22;41913;51.030;3.706;2022-10-26T09:04:03;25.60;99.90
56046;DHT22;41913;51.030;3.706;2022-10-26T09:06:35;26.00;99.80
56046;DHT22;41913;51.030;3.706;2022-10-26T09:14:23;25.60;99.90
56046;DHT22;41913;51.030;3.706;2022-10-26T09:17:02;26.10;99.10
56046;DHT22;41913;51.030;3.706;2022-10-26T09:19:42;26.00;98.80
56046;DHT22;41913;51.030;3.706;2022-10-26T09:25:17;25.70;99.30
56046;DHT22;41913;51.030;3.706;2022-10-26T09:27:47;26.10;99.10
56046;DHT22;41913;51.030;3.706;2022-10-26T09:30:17;26.60;98.60
56046;DHT22;41913;51.030;3.706;2022-10-26T09:32:47;26.70;98.30
56046;DHT22;41913;51.030;3.706;2022-10-26T09:35:14;26.90;98.00
56046;DHT22;41913;51.030;3.706;2022-10-26T09:37:43;27.00;97.70
56046;DHT22;41913;51.030;3.706;2022-10-26T09:40:20;26.70;97.90
56046;DHT22;41913;51.030;3.706;2022-10-26T09:42:58;26.20;98.00
56046;DHT22;41913;51.030;3.706;2022-10-26T09:45:30;25.70;98.40
56046;DHT22;41913;51.030;3.706;2022-10-26T09:47:59;25.70;98.70
56046;DHT22;41913;51.030;3.706;2022-10-26T09:50:33;25.90;98.50
56046;DHT22;41913;51.030;3.706;2022-10-26T09:53:02;26.40;97.90
56046;DHT22;41913;51.030;3.706;2022-10-26T09:55:30;26.50;97.70
56046;DHT22;41913;51.030;3.706;2022-10-26T09:57:58;26.40;97.70
56046;DHT22;41913;51.030;3.706;2022-10-26T10:00:26;26.30;98.00
56046;DHT22;41913;51.030;3.706;2022-10-26T10:02:53;26.30;97.80
56046;DHT22;41913;51.030;3.706;2022-10-26T10:05:27;26.80;97.30
56046;DHT22;41913;51.030;3.706;2022-10-26T10:10:37;27.10;97.10
56046;DHT22;41913;51.030;3.706;2022-10-26T10:13:15;27.10;96.80
56046;DHT22;41913;51.030;3.706;2022-10-26T10:15:49;27.00;96.80
56046;DHT22;41913;51.030;3.706;2022-10-26T10:18:17;27.10;96.90
56046;DHT22;41913;51.030;3.706;2022-10-26T10:20:58;27.20;96.60
56046;DHT22;41913;51.030;3.706;2022-10-26T10:26:00;27.10;96.80
56046;DHT22;41913;51.030;3.706;2022-10-26T10:28:29;26.90;96.70
56046;DHT22;41913;51.030;3.706;2022-10-26T10:33:38;26.10;97.30
56046;DHT22;41913;51.030;3.706;2022-10-26T10:36:08;25.40;97.80
56046;DHT22;41913;51.030;3.706;2022-10-26T10:38:42;24.60;98.70
56046;DHT22;41913;51.030;3.706;2022-10-26T10:41:42;24.20;99.10
56046;DHT22;41913;51.030;3.706;2022-10-26T10:47:02;24.30;99.90
56046;DHT22;41913;51.030;3.706;2022-10-26T10:49:28;24.30;99.40
56046;DHT22;41913;51.030;3.706;2022-10-26T10:51:54;24.40;99.30
56046;DHT22;41913;51.030;3.706;2022-10-26T10:56:51;24.00;99.70
56046;DHT22;41913;51.030;3.706;2022-10-26T11:04:46;22.70;99.90
56046;DHT22;41913;51.030;3.706;2022-10-26T11:07:15;22.20;99.90
56046;DHT22;41913;51.030;3.706;2022-10-26T11:09:46;22.20;99.90
56046;DHT22;41913;51.030;3.706;2022-10-26T11:12:16;22.10;99.90
56046;DHT22;41913;51.030;3.706;2022-10-26T11:15:02;22.00;99.90
56046;DHT22;41913;51.030;3.706;2022-10-26T11:17:33;21.80;99.90
56046;DHT22;41913;51.030;3.706;2022-10-26T11:20:05;21.60;99.90
56046;DHT22;41913;51.030;3.706;2022-10-26T11:22:55;21.40;99.90
56046;DHT22;41913;51.030;3.706;2022-10-26T11:28:12;21.20;99.90
56046;DHT22;41913;51.030;3.706;2022-10-26T11:30:42;21.10;99.90
56046;DHT22;41913;51.030;3.706;2022-10-26T11:35:49;21.20;99.90
56046;DHT22;41913;51.030;3.706;2022-10-26T11:38:50;21.30;99.90
56046;DHT22;41913;51.030;3.706;2022-10-26T11:43:56;21.10;99.90
56046;DHT22;41913;51.030;3.706;2022-10-26T11:56:51;20.90;99.90
56046;DHT22;41913;51.030;3.706;2022-10-26T11:59:18;21.00;99.90
56046;DHT22;41913;51.030;3.706;2022-10-26T12:01:49;20.90;99.90
56046;DHT22;41913;51.030;3.706;2022-10-26T12:04:18;21.00;99.90
56046;DHT22;41913;51.030;3.706;2022-10-26T12:06:48;21.00;99.90
56046;DHT22;41913;51.030;3.706;2022-10-26T12:09:19;21.10;99.90
56046;DHT22;41913;51.030;3.706;2022-10-26T12:11:48;21.10;99.90
56046;DHT22;41913;51.030;3.706;2022-10-26T12:14:18;21.20;99.90
56046;DHT22;41913;51.030;3.706;2022-10-26T12:16:47;21.10;99.90
56046;DHT22;41913;51.030;3.706;2022-10-26T12:19:21;21.20;99.90
56046;DHT22;41913;51.030;3.706;2022-10-26T12:21:50;21.30;99.90
56046;DHT22;41913;51.030;3.706;2022-10-26T12:29:24;21.20;99.90
56046;DHT22;41913;51.030;3.706;2022-10-26T12:31:50;21.20;99.90
56046;DHT22;41913;51.030;3.706;2022-10-26T12:39:36;21.20;99.90
56046;DHT22;41913;51.030;3.706;2022-10-26T12:49:57;21.30;99.90
56046;DHT22;41913;51.030;3.706;2022-10-26T13:00:11;21.40;99.90
56046;DHT22;41913;51.030;3.706;2022-10-26T13:07:39;21.60;99.90
56046;DHT22;41913;51.030;3.706;2022-10-26T13:15:32;21.70;99.90
56046;DHT22;41913;51.030;3.706;2022-10-26T13:18:00;21.50;99.90
56046;DHT22;41913;51.030;3.706;2022-10-26T13:20:31;21.60;99.90
56046;DHT22;41913;51.030;3.706;2022-10-26T13:22:59;21.60;99.90
56046;DHT22;41913;51.030;3.706;2022-10-26T13:28:04;21.80;99.90
56046;DHT22;41913;51.030;3.706;2022-10-26T13:30:40;22.00;99.90
56046;DHT22;41913;51.030;3.706;2022-10-26T13:33:10;22.10;99.90
56046;DHT22;41913;51.030;3.706;2022-10-26T13:38:10;22.00;99.90
56046;DHT22;41913;51.030;3.706;2022-10-26T13:40:39;22.10;99.90
56046;DHT22;41913;51.030;3.706;2022-10-26T13:50:36;22.50;99.90
56046;DHT22;41913;51.030;3.706;2022-10-26T13:53:19;22.60;99.90
56046;DHT22;41913;51.030;3.706;2022-10-26T14:00:58;22.60;99.90
56046;DHT22;41913;51.030;3.706;2022-10-26T14:03:25;22.70;99.90
56046;DHT22;41913;51.030;3.706;2022-10-26T14:05:50;22.60;99.90
56046;DHT22;41913;51.030;3.706;2022-10-26T14:08:17;22.50;99.90
56046;DHT22;41913;51.030;3.706;2022-10-26T14:10:51;22.60;99.90
56046;DHT22;41913;51.030;3.706;2022-10-26T14:13:17;22.70;99.90
56046;DHT22;41913;51.030;3.706;2022-10-26T14:15:45;22.60;99.90
56046;DHT22;41913;51.030;3.706;2022-10-26T14:18:14;22.40;99.90
56046;DHT22;41913;51.030;3.706;2022-10-26T14:20:54;22.30;99.90
56046;DHT22;41913;51.030;3.706;2022-10-26T14:23:26;22.20;99.90
56046;DHT22;41913;51.030;3.706;2022-10-26T14:25:54;22.30;99.90
56046;DHT22;41913;51.030;3.706;2022-10-26T14:28:25;22.80;99.90
56046;DHT22;41913;51.030;3.706;2022-10-26T14:30:51;22.80;99.90
56046;DHT22;41913;51.030;3.706;2022-10-26T14:33:25;22.80;99.90
56046;DHT22;41913;51.030;3.706;2022-10-26T14:35:51;22.90;99.90
56046;DHT22;41913;51.030;3.706;2022-10-26T14:38:20;23.00;99.90
56046;DHT22;41913;51.030;3.706;2022-10-26T14:40:48;22.90;99.90
56046;DHT22;41913;51.030;3.706;2022-10-26T14:43:19;22.90;99.90
56046;DHT22;41913;51.030;3.706;2022-10-26T14:45:48;22.90;99.90
56046;DHT22;41913;51.030;3.706;2022-10-26T14:50:59;22.80;99.90
56046;DHT22;41913;51.030;3.706;2022-10-26T14:53:29;22.70;99.90
56046;DHT22;41913;51.030;3.706;2022-10-26T14:55:58;22.80;99.90
56046;DHT22;41913;51.030;3.706;2022-10-26T14:58:29;22.80;99.90
56046;DHT22;41913;51.030;3.706;2022-10-26T15:03:45;22.80;99.90
56046;DHT22;41913;51.030;3.706;2022-10-26T15:11:54;22.50;99.90
56046;DHT22;41913;51.030;3.706;2022-10-26T15:14:22;22.40;99.90
56046;DHT22;41913;51.030;3.706;2022-10-26T15:16:55;22.20;99.90
56046;DHT22;41913;51.030;3.706;2022-10-26T15:19:24;22.10;99.90
56046;DHT22;41913;51.030;3.706;2022-10-26T15:21:51;22.10;99.90
56046;DHT22;41913;51.030;3.706;2022-10-26T15:26:47;22.00;99.90
56046;DHT22;41913;51.030;3.706;2022-10-26T15:32:00;22.10;99.90
56046;DHT22;41913;51.030;3.706;2022-10-26T15:34:29;22.20;99.90
56046;DHT22;41913;51.030;3.706;2022-10-26T15:39:25;22.00;99.90
56046;DHT22;41913;51.030;3.706;2022-10-26T15:44:21;21.90;99.90
56046;DHT22;41913;51.030;3.706;2022-10-26T15:46:50;21.70;99.90
56046;DHT22;41913;51.030;3.706;2022-10-26T15:49:17;21.70;99.90
56046;DHT22;41913;51.030;3.706;2022-10-26T15:51:46;21.90;99.90
56046;DHT22;41913;51.030;3.706;2022-10-26T15:54:12;22.00;99.90
56046;DHT22;41913;51.030;3.706;2022-10-26T15:56:38;22.10;99.90
56046;DHT22;41913;51.030;3.706;2022-10-26T15:59:15;22.20;99.90
56046;DHT22;41913;51.030;3.706;2022-10-26T16:01:41;22.30;99.90
56046;DHT22;41913;51.030;3.706;2022-10-26T16:04:08;22.20;99.90
56046;DHT22;41913;51.030;3.706;2022-10-26T16:06:34;22.20;99.90
56046;DHT22;41913;51.030;3.706;2022-10-26T16:09:01;22.10;99.90
56046;DHT22;41913;51.030;3.706;2022-10-26T16:11:27;21.90;99.90
56046;DHT22;41913;51.030;3.706;2022-10-26T16:13:53;21.90;99.90
56046;DHT22;41913;51.030;3.706;2022-10-26T16:16:20;21.50;99.90
56046;DHT22;41913;51.030;3.706;2022-10-26T16:18:46;21.40;99.90
56046;DHT22;41913;51.030;3.706;2022-10-26T16:21:16;21.30;99.90
56046;DHT22;41913;51.030;3.706;2022-10-26T16:23:46;21.10;99.90
56046;DHT22;41913;51.030;3.706;2022-10-26T16:26:12;21.10;99.90
56046;DHT22;41913;51.030;3.706;2022-10-26T16:28:38;21.00;99.90
56046;DHT22;41913;51.030;3.706;2022-10-26T16:31:05;20.80;99.90
56046;DHT22;41913;51.030;3.706;2022-10-26T16:33:32;20.80;99.90
56046;DHT22;41913;51.030;3.706;2022-10-26T16:36:00;20.70;99.90
56046;DHT22;41913;51.030;3.706;2022-10-26T16:38:26;20.60;99.90
56046;DHT22;41913;51.030;3.706;2022-10-26T16:41:05;20.60;99.90
56046;DHT22;41913;51.030;3.706;2022-10-26T16:43:32;20.50;99.90
56046;DHT22;41913;51.030;3.706;2022-10-26T16:45:59;20.40;99.90
56046;DHT22;41913;51.030;3.706;2022-10-26T16:48:30;20.30;99.90
56046;DHT22;41913;51.030;3.706;2022-10-26T16:53:25;20.30;99.90
56046;DHT22;41913;51.030;3.706;2022-10-26T16:55:52;20.30;99.90
56046;DHT22;41913;51.030;3.706;2022-10-26T16:58:24;20.30;99.90
56046;DHT22;41913;51.030;3.706;2022-10-26T17:00:54;20.30;99.90
56046;DHT22;41913;51.030;3.706;2022-10-26T17:03:20;20.30;99.90
56046;DHT22;41913;51.030;3.706;2022-10-26T17:05:46;20.30;99.90
56046;DHT22;41913;51.030;3.706;2022-10-26T17:08:12;20.30;99.90
56046;DHT22;41913;51.030;3.706;2022-10-26T17:10:39;20.40;99.90
56046;DHT22;41913;51.030;3.706;2022-10-26T17:13:04;20.40;99.90
56046;DHT22;41913;51.030;3.706;2022-10-26T17:15:32;20.30;99.90
56046;DHT22;41913;51.030;3.706;2022-10-26T17:17:58;20.30;99.90
56046;DHT22;41913;51.030;3.706;2022-10-26T17:20:27;20.00;99.90
56046;DHT22;41913;51.030;3.706;2022-10-26T17:22:54;19.90;99.90
56046;DHT22;41913;51.030;3.706;2022-10-26T17:25:20;19.90;99.90
56046;DHT22;41913;51.030;3.706;2022-10-26T17:27:47;19.80;99.90
56046;DHT22;41913;51.030;3.706;2022-10-26T17:30:13;19.70;99.90
56046;DHT22;41913;51.030;3.706;2022-10-26T17:32:39;19.60;99.90
56046;DHT22;41913;51.030;3.706;2022-10-26T17:35:05;19.40;99.90
56046;DHT22;41913;51.030;3.706;2022-10-26T17:37:30;19.40;99.90
56046;DHT22;41913;51.030;3.706;2022-10-26T17:40:02;19.40;99.90
56046;DHT22;41913;51.030;3.706;2022-10-26T17:42:30;19.30;99.90
56046;DHT22;41913;51.030;3.706;2022-10-26T17:44:56;19.20;99.90
56046;DHT22;41913;51.030;3.706;2022-10-26T17:47:23;19.20;99.90
56046;DHT22;41913;51.030;3.706;2022-10-26T17:49:48;19.10;99.90
56046;DHT22;41913;51.030;3.706;2022-10-26T17:52:15;19.20;99.90
56046;DHT22;41913;51.030;3.706;2022-10-26T17:54:42;19.20;99.90
56046;DHT22;41913;51.030;3.706;2022-10-26T17:57:08;19.10;99.90
56046;DHT22;41913;51.030;3.706;2022-10-26T17:59:34;19.10;99.90
56046;DHT22;41913;51.030;3.706;2022-10-26T18:02:00;19.20;99.90
56046;DHT22;41913;51.030;3.706;2022-10-26T18:04:26;19.20;99.90
56046;DHT22;41913;51.030;3.706;2022-10-26T18:06:51;19.20;99.90
56046;DHT22;41913;51.030;3.706;2022-10-26T18:09:17;19.20;99.90
56046;DHT22;41913;51.030;3.706;2022-10-26T18:11:44;19.30;99.90
56046;DHT22;41913;51.030;3.706;2022-10-26T18:14:09;19.30;99.90
56046;DHT22;41913;51.030;3.706;2022-10-26T18:16:36;19.40;99.90
56046;DHT22;41913;51.030;3.706;2022-10-26T18:19:04;19.30;99.90
56046;DHT22;41913;51.030;3.706;2022-10-26T18:21:32;19.10;99.90
56046;DHT22;41913;51.030;3.706;2022-10-26T18:23:59;19.20;99.90
56046;DHT22;41913;51.030;3.706;2022-10-26T18:26:28;19.20;99.90
56046;DHT22;41913;51.030;3.706;2022-10-26T18:28:58;19.20;99.90
56046;DHT22;41913;51.030;3.706;2022-10-26T18:31:25;19.10;99.90
56046;DHT22;41913;51.030;3.706;2022-10-26T18:33:58;19.10;99.90
56046;DHT22;41913;51.030;3.706;2022-10-26T18:36:24;19.20;99.90
56046;DHT22;41913;51.030;3.706;2022-10-26T18:38:50;19.10;99.90
56046;DHT22;41913;51.030;3.706;2022-10-26T18:41:18;19.10;99.90
56046;DHT22;41913;51.030;3.706;2022-10-26T18:43:44;19.30;99.90
56046;DHT22;41913;51.030;3.706;2022-10-26T18:48:45;19.20;99.90
56046;DHT22;41913;51.030;3.706;2022-10-26T18:53:39;19.30;99.90
56046;DHT22;41913;51.030;3.706;2022-10-26T18:56:08;19.30;99.90
56046;DHT22;41913;51.030;3.706;2022-10-26T18:58:35;19.10;99.90
56046;DHT22;41913;51.030;3.706;2022-10-26T19:01:20;19.10;99.90
56046;DHT22;41913;51.030;3.706;2022-10-26T19:06:26;19.30;99.90
56046;DHT22;41913;51.030;3.706;2022-10-26T19:08:58;19.30;99.90
56046;DHT22;41913;51.030;3.706;2022-10-26T19:11:25;19.30;99.90
56046;DHT22;41913;51.030;3.706;2022-10-26T19:13:50;19.30;99.90
56046;DHT22;41913;51.030;3.706;2022-10-26T19:16:20;19.30;99.90
56046;DHT22;41913;51.030;3.706;2022-10-26T19:18:47;19.30;99.90
56046;DHT22;41913;51.030;3.706;2022-10-26T19:21:18;19.20;99.90
56046;DHT22;41913;51.030;3.706;2022-10-26T19:23:52;19.10;99.90
56046;DHT22;41913;51.030;3.706;2022-10-26T19:26:19;19.30;99.90
56046;DHT22;41913;51.030;3.706;2022-10-26T19:28:45;19.10;99.90
56046;DHT22;41913;51.030;3.706;2022-10-26T19:31:12;19.30;99.90
56046;DHT22;41913;51.030;3.706;2022-10-26T19:33:39;19.40;99.90
56046;DHT22;41913;51.030;3.706;2022-10-26T19:36:10;19.40;99.90
56046;DHT22;41913;51.030;3.706;2022-10-26T19:38:36;19.30;99.90
56046;DHT22;41913;51.030;3.706;2022-10-26T19:41:03;19.10;99.90
56046;DHT22;41913;51.030;3.706;2022-10-26T19:43:29;19.00;99.90
56046;DHT22;41913;51.030;3.706;2022-10-26T19:45:56;19.00;99.90
56046;DHT22;41913;51.030;3.706;2022-10-26T19:48:21;19.00;99.90
56046;DHT22;41913;51.030;3.706;2022-10-26T19:50:48;19.10;99.90
56046;DHT22;41913;51.030;3.706;2022-10-26T19:53:14;19.10;99.90